UKV1254 SBBR-SBSV
Flight info
| Callsign | UKV1254 |
|---|---|
| Flight time | 1h 26m |
| Altitude | 37000 |
| Route | UGTAK UZ19 DOTBI |
| Aircraft | B738/M-SDE2E3FGHIRWXY/LB1 |
Departure
| Time | 2026-05-04 09:22 |
|---|---|
| Airport | Presidente Juscelino Kubitschek International Airport (SBBR) |
Arrival
| Time | 2026-05-04 10:49 |
|---|---|
| Airport | Deputado Luiz Eduardo Magalhães International Airport (SBSV) |
| Time | Latitude | Longitude | Altitude | Speed | Heading |
|---|---|---|---|---|---|
| 2026-05-04 08:49 | -15.86610 | -47.90729 | 3470 ft | 0 kts | 267° |
| 2026-05-04 09:04 | -15.86611 | -47.90745 | 3442 ft | 4 kts | 269° |
| 2026-05-04 09:04 | -15.86595 | -47.90769 | 3470 ft | 4 kts | 332° |
| 2026-05-04 09:05 | -15.86571 | -47.90775 | 3470 ft | 4 kts | 349° |
| 2026-05-04 09:05 | -15.86547 | -47.90769 | 3470 ft | 3 kts | 33° |
| 2026-05-04 09:05 | -15.86536 | -47.90749 | 3469 ft | 4 kts | 70° |
| 2026-05-04 09:05 | -15.86528 | -47.90717 | 3470 ft | 5 kts | 65° |
| 2026-05-04 09:06 | -15.86496 | -47.90703 | 3470 ft | 6 kts | 7° |
| 2026-05-04 09:07 | -15.86445 | -47.91103 | 3470 ft | 13 kts | 266° |
| 2026-05-04 09:08 | -15.86452 | -47.91197 | 3470 ft | 13 kts | 265° |
| 2026-05-04 09:08 | -15.86458 | -47.91292 | 3470 ft | 13 kts | 266° |
| 2026-05-04 09:08 | -15.86464 | -47.91389 | 3470 ft | 14 kts | 266° |
| 2026-05-04 09:08 | -15.86471 | -47.91488 | 3470 ft | 14 kts | 266° |
| 2026-05-04 09:09 | -15.86476 | -47.91576 | 3470 ft | 10 kts | 266° |
| 2026-05-04 09:09 | -15.86509 | -47.91629 | 3470 ft | 9 kts | 193° |
| 2026-05-04 09:09 | -15.86572 | -47.91626 | 3470 ft | 9 kts | 175° |
| 2026-05-04 09:09 | -15.86637 | -47.91622 | 3469 ft | 9 kts | 176° |
| 2026-05-04 09:10 | -15.86703 | -47.91618 | 3470 ft | 10 kts | 176° |
| 2026-05-04 09:10 | -15.86772 | -47.91613 | 3470 ft | 10 kts | 176° |
| 2026-05-04 09:10 | -15.86842 | -47.91608 | 3470 ft | 10 kts | 176° |
| 2026-05-04 09:10 | -15.86915 | -47.91603 | 3470 ft | 11 kts | 176° |
| 2026-05-04 09:11 | -15.86989 | -47.91598 | 3470 ft | 11 kts | 176° |
| 2026-05-04 09:11 | -15.87065 | -47.91593 | 3470 ft | 11 kts | 176° |
| 2026-05-04 09:11 | -15.87142 | -47.91587 | 3470 ft | 11 kts | 175° |
| 2026-05-04 09:11 | -15.87220 | -47.91582 | 3470 ft | 11 kts | 177° |
| 2026-05-04 09:12 | -15.87300 | -47.91578 | 3469 ft | 12 kts | 176° |
| 2026-05-04 09:12 | -15.87381 | -47.91572 | 3470 ft | 12 kts | 175° |
| 2026-05-04 09:14 | -15.87745 | -47.91769 | 3470 ft | 11 kts | 266° |
| 2026-05-04 09:14 | -15.87749 | -47.91847 | 3470 ft | 11 kts | 266° |
| 2026-05-04 09:14 | -15.87754 | -47.91925 | 3470 ft | 11 kts | 266° |
| 2026-05-04 09:14 | -15.87759 | -47.92005 | 3470 ft | 11 kts | 266° |
| 2026-05-04 09:15 | -15.87763 | -47.92087 | 3470 ft | 11 kts | 266° |
| 2026-05-04 09:15 | -15.87770 | -47.92169 | 3470 ft | 11 kts | 265° |
| 2026-05-04 09:15 | -15.87778 | -47.92252 | 3470 ft | 12 kts | 265° |
| 2026-05-04 09:15 | -15.87782 | -47.92336 | 3471 ft | 12 kts | 267° |
| 2026-05-04 09:17 | -15.87829 | -47.93074 | 3471 ft | 14 kts | 266° |
| 2026-05-04 09:18 | -15.87834 | -47.93173 | 3470 ft | 14 kts | 267° |
| 2026-05-04 09:18 | -15.87841 | -47.93271 | 3471 ft | 14 kts | 265° |
| 2026-05-04 09:18 | -15.87847 | -47.93369 | 3471 ft | 14 kts | 266° |
| 2026-05-04 09:18 | -15.87853 | -47.93468 | 3471 ft | 14 kts | 266° |
| 2026-05-04 09:19 | -15.87859 | -47.93567 | 3471 ft | 14 kts | 266° |
| 2026-05-04 09:19 | -15.87866 | -47.93666 | 3472 ft | 14 kts | 266° |
| 2026-05-04 09:19 | -15.87872 | -47.93763 | 3471 ft | 13 kts | 267° |
| 2026-05-04 09:19 | -15.87878 | -47.93860 | 3472 ft | 13 kts | 266° |
| 2026-05-04 09:20 | -15.87883 | -47.93932 | 3473 ft | 10 kts | 265° |
| 2026-05-04 09:20 | -15.87914 | -47.93989 | 3473 ft | 8 kts | 212° |
| 2026-05-04 09:20 | -15.87955 | -47.93996 | 3473 ft | 6 kts | 180° |
| 2026-05-04 09:20 | -15.88015 | -47.93993 | 3481 ft | 7 kts | 176° |
| 2026-05-04 09:21 | -15.88051 | -47.93981 | 3484 ft | 7 kts | 136° |
| 2026-05-04 09:21 | -15.88060 | -47.93916 | 3482 ft | 13 kts | 88° |
| 2026-05-04 09:21 | -15.88051 | -47.93745 | 3480 ft | 40 kts | 86° |
| 2026-05-04 09:21 | -15.88022 | -47.93247 | 3475 ft | 99 kts | 86° |
| 2026-05-04 09:22 | -15.87962 | -47.92359 | 3475 ft | 145 kts | 86° |
| 2026-05-04 09:22 | -15.87908 | -47.91165 | 3500 ft | 182 kts | 91° |
| 2026-05-04 09:22 | -15.87852 | -47.89788 | 3853 ft | 195 kts | 90° |
| 2026-05-04 09:22 | -15.87823 | -47.88452 | 4925 ft | 171 kts | 89° |
| 2026-05-04 09:23 | -15.87821 | -47.87188 | 5434 ft | 188 kts | 89° |
| 2026-05-04 09:23 | -15.87836 | -47.85720 | 5662 ft | 219 kts | 92° |
| 2026-05-04 09:23 | -15.87883 | -47.84056 | 6274 ft | 236 kts | 84° |
| 2026-05-04 09:23 | -15.87598 | -47.82307 | 6893 ft | 253 kts | 78° |
| 2026-05-04 09:25 | -15.86401 | -47.68523 | 9112 ft | 281 kts | 84° |
| 2026-05-04 09:25 | -15.86208 | -47.66497 | 9115 ft | 281 kts | 84° |
| 2026-05-04 09:26 | -15.86025 | -47.64476 | 9109 ft | 282 kts | 84° |
| 2026-05-04 09:26 | -15.85851 | -47.62444 | 9112 ft | 282 kts | 84° |
| 2026-05-04 09:26 | -15.85680 | -47.60414 | 9116 ft | 282 kts | 84° |
| 2026-05-04 09:26 | -15.85509 | -47.58387 | 9119 ft | 282 kts | 84° |
| 2026-05-04 09:27 | -15.85279 | -47.56368 | 9103 ft | 282 kts | 76° |
| 2026-05-04 09:27 | -15.84553 | -47.54491 | 9125 ft | 283 kts | 58° |
| 2026-05-04 09:27 | -15.83409 | -47.52830 | 9956 ft | 284 kts | 54° |
| 2026-05-04 09:27 | -15.82229 | -47.51131 | 10586 ft | 298 kts | 54° |
| 2026-05-04 09:28 | -15.80980 | -47.49337 | 11072 ft | 315 kts | 54° |
| 2026-05-04 09:28 | -15.79653 | -47.47440 | 11524 ft | 333 kts | 55° |
| 2026-05-04 09:28 | -15.78264 | -47.45462 | 12105 ft | 343 kts | 55° |
| 2026-05-04 09:28 | -15.76843 | -47.43443 | 12806 ft | 350 kts | 55° |
| 2026-05-04 09:29 | -15.75396 | -47.41389 | 13523 ft | 355 kts | 55° |
| 2026-05-04 09:29 | -15.73925 | -47.39302 | 14188 ft | 360 kts | 55° |
| 2026-05-04 09:29 | -15.72440 | -47.37196 | 14807 ft | 364 kts | 55° |
| 2026-05-04 09:29 | -15.70935 | -47.35062 | 15431 ft | 368 kts | 55° |
| 2026-05-04 09:30 | -15.69411 | -47.32903 | 16059 ft | 373 kts | 55° |
| 2026-05-04 09:30 | -15.67870 | -47.30718 | 16664 ft | 378 kts | 55° |
| 2026-05-04 09:30 | -15.66305 | -47.28503 | 17256 ft | 383 kts | 55° |
| 2026-05-04 09:30 | -15.64715 | -47.26251 | 17836 ft | 389 kts | 55° |
| 2026-05-04 09:31 | -15.63102 | -47.23968 | 18425 ft | 394 kts | 55° |
| 2026-05-04 09:31 | -15.61496 | -47.21695 | 18929 ft | 398 kts | 55° |
| 2026-05-04 09:31 | -15.59826 | -47.19332 | 19470 ft | 402 kts | 55° |
| 2026-05-04 09:31 | -15.58167 | -47.16985 | 19989 ft | 406 kts | 54° |
| 2026-05-04 09:32 | -15.56505 | -47.14635 | 20482 ft | 411 kts | 54° |
| 2026-05-04 09:32 | -15.54810 | -47.12240 | 21021 ft | 414 kts | 54° |
| 2026-05-04 09:34 | -15.42497 | -46.94858 | 24326 ft | 439 kts | 54° |
| 2026-05-04 09:34 | -15.40679 | -46.92295 | 24728 ft | 443 kts | 54° |
| 2026-05-04 09:34 | -15.38848 | -46.89715 | 25116 ft | 446 kts | 54° |
| 2026-05-04 09:34 | -15.37005 | -46.87118 | 25496 ft | 449 kts | 54° |
| 2026-05-04 09:35 | -15.35148 | -46.84503 | 25870 ft | 452 kts | 54° |
| 2026-05-04 09:35 | -15.33272 | -46.81862 | 26242 ft | 455 kts | 54° |
| 2026-05-04 09:35 | -15.31392 | -46.79215 | 26603 ft | 458 kts | 54° |
| 2026-05-04 09:35 | -15.29524 | -46.76587 | 26953 ft | 461 kts | 54° |
| 2026-05-04 09:37 | -15.15932 | -46.57491 | 29284 ft | 479 kts | 54° |
| 2026-05-04 09:37 | -15.13953 | -46.54713 | 29596 ft | 481 kts | 55° |
| 2026-05-04 09:38 | -15.11960 | -46.51919 | 29889 ft | 483 kts | 55° |
| 2026-05-04 09:38 | -15.09959 | -46.49113 | 30153 ft | 486 kts | 55° |
| 2026-05-04 09:38 | -15.07945 | -46.46291 | 30390 ft | 488 kts | 55° |
| 2026-05-04 09:38 | -15.06578 | -46.44376 | 30499 ft | 491 kts | 54° |
| 2026-05-04 09:39 | -15.04548 | -46.41532 | 30780 ft | 492 kts | 54° |
| 2026-05-04 09:39 | -15.02516 | -46.38688 | 31072 ft | 492 kts | 54° |
| 2026-05-04 09:39 | -15.00478 | -46.35837 | 31371 ft | 492 kts | 54° |
| 2026-05-04 09:39 | -14.98437 | -46.32982 | 31679 ft | 492 kts | 54° |
| 2026-05-04 09:40 | -14.96403 | -46.30140 | 31980 ft | 492 kts | 54° |
| 2026-05-04 09:40 | -14.94365 | -46.27292 | 32289 ft | 492 kts | 54° |
| 2026-05-04 09:40 | -14.92352 | -46.24478 | 32586 ft | 492 kts | 55° |
| 2026-05-04 09:40 | -14.90624 | -46.21442 | 32964 ft | 490 kts | 67° |
| 2026-05-04 09:41 | -14.89424 | -46.18142 | 33255 ft | 490 kts | 73° |
| 2026-05-04 09:42 | -14.82225 | -45.94604 | 35233 ft | 489 kts | 74° |
| 2026-05-04 09:43 | -14.81196 | -45.91243 | 35523 ft | 488 kts | 74° |
| 2026-05-04 09:43 | -14.80178 | -45.87897 | 35793 ft | 488 kts | 74° |
| 2026-05-04 09:43 | -14.79157 | -45.84554 | 36081 ft | 487 kts | 74° |
| 2026-05-04 09:43 | -14.78131 | -45.81215 | 36350 ft | 487 kts | 73° |
| 2026-05-04 09:44 | -14.77101 | -45.77877 | 36608 ft | 487 kts | 73° |
| 2026-05-04 09:44 | -14.76075 | -45.74551 | 36876 ft | 486 kts | 73° |
| 2026-05-04 09:44 | -14.75050 | -45.71221 | 37093 ft | 487 kts | 73° |
| 2026-05-04 09:46 | -14.67830 | -45.47799 | 37117 ft | 484 kts | 73° |
| 2026-05-04 09:46 | -14.65778 | -45.41156 | 37118 ft | 486 kts | 73° |
| 2026-05-04 09:47 | -14.63730 | -45.34538 | 37107 ft | 485 kts | 73° |
| 2026-05-04 09:49 | -14.55501 | -45.08021 | 37112 ft | 484 kts | 73° |
| 2026-05-04 09:51 | -14.48309 | -44.84941 | 37106 ft | 483 kts | 73° |
| 2026-05-04 09:51 | -14.46247 | -44.78342 | 37116 ft | 483 kts | 73° |
| 2026-05-04 09:52 | -14.44184 | -44.71749 | 37108 ft | 482 kts | 73° |
| 2026-05-04 09:52 | -14.42118 | -44.65164 | 37112 ft | 483 kts | 73° |
| 2026-05-04 09:53 | -14.40050 | -44.58570 | 37112 ft | 482 kts | 73° |
| 2026-05-04 09:53 | -14.37983 | -44.51987 | 37116 ft | 482 kts | 73° |
| 2026-05-04 09:54 | -14.35916 | -44.45415 | 37112 ft | 481 kts | 73° |
| 2026-05-04 09:54 | -14.33845 | -44.38837 | 37109 ft | 482 kts | 73° |
| 2026-05-04 09:55 | -14.31774 | -44.32265 | 37109 ft | 481 kts | 73° |
| 2026-05-04 09:55 | -14.29703 | -44.25698 | 37109 ft | 481 kts | 73° |
| 2026-05-04 09:56 | -14.27630 | -44.19132 | 37110 ft | 481 kts | 73° |
| 2026-05-04 09:56 | -14.25555 | -44.12569 | 37111 ft | 481 kts | 73° |
| 2026-05-04 09:57 | -14.23491 | -44.06044 | 37109 ft | 481 kts | 73° |
| 2026-05-04 09:57 | -14.21420 | -43.99494 | 37112 ft | 481 kts | 73° |
| 2026-05-04 09:58 | -14.19343 | -43.92938 | 37105 ft | 481 kts | 73° |
| 2026-05-04 09:58 | -14.17265 | -43.86385 | 37107 ft | 481 kts | 73° |
| 2026-05-04 10:00 | -14.08939 | -43.60195 | 37092 ft | 481 kts | 73° |
| 2026-05-04 10:04 | -13.94330 | -43.14494 | 37099 ft | 480 kts | 73° |
| 2026-05-04 10:04 | -13.92232 | -43.07961 | 37097 ft | 480 kts | 73° |
| 2026-05-04 10:05 | -13.90133 | -43.01431 | 37102 ft | 480 kts | 73° |
| 2026-05-04 10:05 | -13.88031 | -42.94902 | 37102 ft | 481 kts | 73° |
| 2026-05-04 10:06 | -13.85925 | -42.88366 | 37114 ft | 481 kts | 73° |
| 2026-05-04 10:06 | -13.83818 | -42.81831 | 37122 ft | 481 kts | 73° |
| 2026-05-04 10:08 | -13.76434 | -42.58984 | 37138 ft | 480 kts | 73° |
| 2026-05-04 10:08 | -13.74321 | -42.52461 | 37146 ft | 481 kts | 73° |
| 2026-05-04 10:09 | -13.72206 | -42.45939 | 37144 ft | 480 kts | 73° |
| 2026-05-04 10:09 | -13.70101 | -42.39453 | 37147 ft | 480 kts | 73° |
| 2026-05-04 10:10 | -13.67982 | -42.32933 | 37148 ft | 481 kts | 73° |
| 2026-05-04 10:10 | -13.65864 | -42.26418 | 37149 ft | 480 kts | 73° |
| 2026-05-04 10:11 | -13.63743 | -42.19905 | 37136 ft | 480 kts | 73° |
| 2026-05-04 10:11 | -13.61618 | -42.13386 | 37142 ft | 480 kts | 73° |
| 2026-05-04 10:12 | -13.59491 | -42.06873 | 37154 ft | 480 kts | 73° |
| 2026-05-04 10:12 | -13.57363 | -42.00362 | 37163 ft | 480 kts | 73° |
| 2026-05-04 10:13 | -13.55233 | -41.93851 | 37164 ft | 480 kts | 73° |
| 2026-05-04 10:13 | -13.53105 | -41.87349 | 37155 ft | 480 kts | 73° |
| 2026-05-04 10:14 | -13.50976 | -41.80845 | 37164 ft | 480 kts | 73° |
| 2026-05-04 10:16 | -13.42797 | -41.55932 | 37172 ft | 480 kts | 73° |
| 2026-05-04 10:16 | -13.40656 | -41.49423 | 37170 ft | 480 kts | 73° |
| 2026-05-04 10:17 | -13.38517 | -41.42932 | 37170 ft | 479 kts | 73° |
| 2026-05-04 10:19 | -13.29964 | -41.17022 | 37152 ft | 479 kts | 73° |
| 2026-05-04 10:19 | -13.27819 | -41.10540 | 37150 ft | 479 kts | 73° |
| 2026-05-04 10:20 | -13.25672 | -41.04060 | 37152 ft | 480 kts | 73° |
| 2026-05-04 10:20 | -13.23520 | -40.97568 | 37148 ft | 479 kts | 73° |
| 2026-05-04 10:21 | -13.21369 | -40.91088 | 37150 ft | 479 kts | 73° |
| 2026-05-04 10:21 | -13.19216 | -40.84605 | 37147 ft | 479 kts | 73° |
| 2026-05-04 10:22 | -13.15985 | -40.74890 | 37141 ft | 480 kts | 73° |
| 2026-05-04 10:23 | -13.13837 | -40.68412 | 37143 ft | 479 kts | 73° |
| 2026-05-04 10:25 | -13.05226 | -40.42587 | 37142 ft | 479 kts | 73° |
| 2026-05-04 10:25 | -13.03063 | -40.36119 | 37052 ft | 481 kts | 73° |
| 2026-05-04 10:25 | -13.01974 | -40.32864 | 36797 ft | 481 kts | 73° |
| 2026-05-04 10:26 | -13.00896 | -40.29649 | 36549 ft | 473 kts | 73° |
| 2026-05-04 10:26 | -12.99827 | -40.26469 | 36303 ft | 469 kts | 73° |
| 2026-05-04 10:26 | -12.98762 | -40.23297 | 36058 ft | 470 kts | 73° |
| 2026-05-04 10:26 | -12.97700 | -40.20130 | 35812 ft | 470 kts | 73° |
| 2026-05-04 10:27 | -12.96632 | -40.16934 | 35133 ft | 476 kts | 73° |
| 2026-05-04 10:27 | -12.95551 | -40.13701 | 34323 ft | 483 kts | 73° |
| 2026-05-04 10:27 | -12.94455 | -40.10438 | 33741 ft | 483 kts | 73° |
| 2026-05-04 10:27 | -12.93363 | -40.07193 | 33176 ft | 480 kts | 73° |
| 2026-05-04 10:28 | -12.92276 | -40.03961 | 32619 ft | 478 kts | 73° |
| 2026-05-04 10:28 | -12.91195 | -40.00743 | 32059 ft | 476 kts | 73° |
| 2026-05-04 10:28 | -12.90119 | -39.97540 | 31494 ft | 474 kts | 73° |
| 2026-05-04 10:28 | -12.89046 | -39.94349 | 30921 ft | 473 kts | 72° |
| 2026-05-04 10:29 | -12.87975 | -39.91169 | 30348 ft | 471 kts | 72° |
| 2026-05-04 10:29 | -12.86910 | -39.88005 | 29713 ft | 469 kts | 72° |
| 2026-05-04 10:29 | -12.86027 | -39.84804 | 29170 ft | 464 kts | 81° |
| 2026-05-04 10:29 | -12.85760 | -39.81529 | 28584 ft | 460 kts | 91° |
| 2026-05-04 10:30 | -12.85738 | -39.78245 | 27937 ft | 459 kts | 91° |
| 2026-05-04 10:30 | -12.85779 | -39.74975 | 27328 ft | 457 kts | 92° |
| 2026-05-04 10:30 | -12.85852 | -39.71729 | 26720 ft | 455 kts | 92° |
| 2026-05-04 10:30 | -12.85915 | -39.68495 | 26106 ft | 451 kts | 92° |
| 2026-05-04 10:31 | -12.85948 | -39.65317 | 25505 ft | 441 kts | 91° |
| 2026-05-04 10:31 | -12.85963 | -39.62210 | 24904 ft | 431 kts | 91° |
| 2026-05-04 10:32 | -12.86121 | -39.44760 | 21317 ft | 387 kts | 92° |
| 2026-05-04 10:33 | -12.86144 | -39.42023 | 20748 ft | 381 kts | 92° |
| 2026-05-04 10:33 | -12.86168 | -39.39329 | 20179 ft | 376 kts | 92° |
| 2026-05-04 10:33 | -12.86192 | -39.36661 | 19609 ft | 371 kts | 92° |
| 2026-05-04 10:33 | -12.86216 | -39.34028 | 19043 ft | 367 kts | 92° |
| 2026-05-04 10:34 | -12.86239 | -39.31429 | 18478 ft | 363 kts | 92° |
| 2026-05-04 10:34 | -12.86262 | -39.28849 | 17846 ft | 359 kts | 92° |
| 2026-05-04 10:34 | -12.86284 | -39.26313 | 17262 ft | 353 kts | 92° |
| 2026-05-04 10:34 | -12.86305 | -39.23813 | 16692 ft | 348 kts | 92° |
| 2026-05-04 10:35 | -12.86326 | -39.21352 | 16137 ft | 342 kts | 92° |
| 2026-05-04 10:35 | -12.86346 | -39.18935 | 15579 ft | 337 kts | 92° |
| 2026-05-04 10:35 | -12.86365 | -39.16551 | 15031 ft | 332 kts | 92° |
| 2026-05-04 10:35 | -12.86385 | -39.14202 | 14490 ft | 327 kts | 92° |
| 2026-05-04 10:36 | -12.86403 | -39.11891 | 13949 ft | 323 kts | 92° |
| 2026-05-04 10:36 | -12.86422 | -39.09586 | 13347 ft | 324 kts | 92° |
| 2026-05-04 10:36 | -12.86442 | -39.07290 | 12769 ft | 320 kts | 92° |
| 2026-05-04 10:36 | -12.86460 | -39.05031 | 12214 ft | 315 kts | 92° |
| 2026-05-04 10:37 | -12.86477 | -39.02799 | 11663 ft | 310 kts | 92° |
| 2026-05-04 10:37 | -12.86493 | -39.00604 | 11131 ft | 307 kts | 92° |
| 2026-05-04 10:37 | -12.86511 | -38.98411 | 10595 ft | 309 kts | 92° |
| 2026-05-04 10:37 | -12.86526 | -38.96247 | 10318 ft | 295 kts | 92° |
| 2026-05-04 10:39 | -12.87942 | -38.84969 | 8889 ft | 258 kts | 111° |
| 2026-05-04 10:39 | -12.88550 | -38.83249 | 8588 ft | 255 kts | 111° |
| 2026-05-04 10:39 | -12.89144 | -38.81566 | 8295 ft | 254 kts | 111° |
| 2026-05-04 10:40 | -12.89738 | -38.79871 | 8008 ft | 252 kts | 112° |
| 2026-05-04 10:40 | -12.90326 | -38.78181 | 7717 ft | 251 kts | 112° |
| 2026-05-04 10:40 | -12.90910 | -38.76503 | 7420 ft | 248 kts | 112° |
| 2026-05-04 10:40 | -12.91488 | -38.74839 | 7138 ft | 247 kts | 112° |
| 2026-05-04 10:41 | -12.92064 | -38.73184 | 6860 ft | 246 kts | 112° |
| 2026-05-04 10:41 | -12.92639 | -38.71534 | 6583 ft | 245 kts | 112° |
| 2026-05-04 10:41 | -12.93210 | -38.69894 | 6298 ft | 243 kts | 113° |
| 2026-05-04 10:41 | -12.93781 | -38.68255 | 6026 ft | 244 kts | 113° |
| 2026-05-04 10:42 | -12.94348 | -38.66625 | 5757 ft | 242 kts | 113° |
| 2026-05-04 10:42 | -12.94918 | -38.64986 | 5450 ft | 246 kts | 113° |
| 2026-05-04 10:42 | -12.95494 | -38.63331 | 5175 ft | 246 kts | 113° |
| 2026-05-04 10:42 | -12.96058 | -38.61703 | 4901 ft | 238 kts | 113° |
| 2026-05-04 10:43 | -12.96368 | -38.60065 | 4628 ft | 234 kts | 93° |
| 2026-05-04 10:44 | -12.94526 | -38.50536 | 3106 ft | 162 kts | 84° |
| 2026-05-04 10:45 | -12.94290 | -38.49432 | 3034 ft | 159 kts | 84° |
| 2026-05-04 10:45 | -12.94065 | -38.48331 | 2871 ft | 153 kts | 83° |
| 2026-05-04 10:45 | -12.93849 | -38.47253 | 2680 ft | 155 kts | 84° |
| 2026-05-04 10:45 | -12.93638 | -38.46205 | 2437 ft | 147 kts | 83° |
| 2026-05-04 10:46 | -12.93432 | -38.45154 | 2221 ft | 154 kts | 85° |
| 2026-05-04 10:46 | -12.93261 | -38.44069 | 2071 ft | 155 kts | 89° |
| 2026-05-04 10:46 | -12.93053 | -38.42987 | 1910 ft | 153 kts | 82° |
| 2026-05-04 10:46 | -12.92771 | -38.41936 | 1694 ft | 153 kts | 79° |
| 2026-05-04 10:47 | -12.92514 | -38.40884 | 1521 ft | 150 kts | 84° |
| 2026-05-04 10:47 | -12.92299 | -38.39837 | 1312 ft | 149 kts | 84° |
| 2026-05-04 10:47 | -12.92106 | -38.38779 | 1028 ft | 152 kts | 85° |
| 2026-05-04 10:47 | -12.91918 | -38.37728 | 890 ft | 148 kts | 83° |
| 2026-05-04 10:49 | -12.90809 | -38.32012 | 41 ft | 16 kts | 78° |
| 2026-05-04 10:49 | -12.90787 | -38.31905 | 42 ft | 14 kts | 77° |
| 2026-05-04 10:50 | -12.90769 | -38.31814 | 42 ft | 10 kts | 79° |
| 2026-05-04 10:51 | -12.90954 | -38.31949 | 41 ft | 11 kts | 259° |
| 2026-05-04 10:52 | -12.90970 | -38.32031 | 41 ft | 12 kts | 257° |
| 2026-05-04 10:52 | -12.90989 | -38.32118 | 40 ft | 13 kts | 258° |
| 2026-05-04 10:52 | -12.91009 | -38.32215 | 38 ft | 14 kts | 258° |
| 2026-05-04 10:54 | -12.91153 | -38.32955 | 29 ft | 13 kts | 259° |
| 2026-05-04 10:54 | -12.91174 | -38.33047 | 28 ft | 14 kts | 256° |
| 2026-05-04 10:56 | -12.91341 | -38.33318 | 27 ft | 2 kts | 171° |
| 2026-05-04 10:56 | -12.91345 | -38.33317 | 29 ft | 0 kts | 170° |